Time;durP1;ratioP1;P1;durP2;ratioP2;P2;SDS_P1;SDS_P2;PMS_P1;PMS_P2;Temp;Humidity;BMP_temperature;BMP_pressure;BME280_temperature;BME280_humidity;BME280_pressure;Samples;Min_cycle;Max_cycle;Signal;HPM_P1;HPM_P2
2021/05/23 00:00:30;;;;;;;8.35;3.45;;;16.30;83.20;;;;;;5074048;28;20386;-57
2021/05/23 00:02:59;;;;;;;7.05;2.97;;;16.30;83.20;;;;;;5073419;28;20497;-52
2021/05/23 00:05:29;;;;;;;6.55;3.28;;;16.30;83.10;;;;;;5073627;28;20077;-61
2021/05/23 00:08:06;;;;;;;7.55;3.03;;;16.40;83.10;;;;;;5072823;28;20025;-57
2021/05/23 00:10:41;;;;;;;4.25;2.90;;;16.30;83.00;;;;;;5073359;28;20040;-61
2021/05/23 00:13:11;;;;;;;7.53;3.25;;;16.40;83.10;;;;;;5073361;28;20111;-60
2021/05/23 00:15:47;;;;;;;7.47;3.00;;;16.40;83.00;;;;;;5073299;28;20096;-57
2021/05/23 00:18:15;;;;;;;4.88;3.05;;;16.40;82.90;;;;;;5073185;28;20115;-59
2021/05/23 00:20:42;;;;;;;7.28;3.15;;;16.40;83.00;;;;;;5072902;28;20104;-60
2021/05/23 00:23:11;;;;;;;5.15;2.88;;;16.40;82.90;;;;;;5073003;28;20150;-63
2021/05/23 00:25:40;;;;;;;8.38;2.95;;;16.50;83.00;;;;;;5073226;28;20095;-61
2021/05/23 00:28:08;;;;;;;6.95;3.80;;;16.50;82.90;;;;;;5073004;28;20154;-58
2021/05/23 00:30:36;;;;;;;6.50;3.10;;;16.50;82.90;;;;;;5072825;28;20027;-62
2021/05/23 00:33:05;;;;;;;6.78;2.92;;;16.60;83.00;;;;;;5072278;28;20041;-59
2021/05/23 00:35:33;;;;;;;5.95;3.47;;;16.60;82.70;;;;;;5073208;28;20025;-63
2021/05/23 00:38:01;;;;;;;7.65;3.97;;;16.70;82.80;;;;;;5072726;28;20024;-62
2021/05/23 00:40:28;;;;;;;6.38;3.10;;;16.80;82.70;;;;;;5072835;28;20051;-65
2021/05/23 00:42:55;;;;;;;5.00;3.05;;;16.80;82.60;;;;;;5072901;28;20127;-61
2021/05/23 00:45:23;;;;;;;8.20;3.15;;;16.90;82.70;;;;;;5073038;28;20409;-62
2021/05/23 00:47:50;;;;;;;9.18;3.25;;;17.00;82.50;;;;;;5072758;28;20032;-59
2021/05/23 00:50:23;;;;;;;8.18;3.25;;;17.00;82.00;;;;;;5072668;28;20104;-60
2021/05/23 00:52:53;;;;;;;7.63;3.63;;;17.10;81.80;;;;;;5072560;28;20103;-60
2021/05/23 00:55:21;;;;;;;8.02;3.03;;;17.20;81.80;;;;;;5071327;28;20028;-63
2021/05/23 00:57:50;;;;;;;6.53;2.88;;;17.30;81.40;;;;;;5071338;28;20025;-63
2021/05/23 01:00:47;;;;;;;6.75;3.10;;;17.40;80.90;;;;;;5072627;28;20052;-57
2021/05/23 01:03:27;;;;;;;4.95;2.83;;;17.50;80.20;;;;;;5039279;28;20521;-54
2021/05/23 01:05:55;;;;;;;6.00;2.95;;;17.70;80.00;;;;;;5072373;28;20485;-59
2021/05/23 01:08:24;;;;;;;7.50;3.15;;;17.80;79.90;;;;;;5069725;28;20039;-54
2021/05/23 01:11:11;;;;;;;7.22;3.00;;;18.00;80.10;;;;;;5052001;28;20099;-60
2021/05/23 01:14:10;;;;;;;5.45;2.80;;;18.40;79.40;;;;;;5052322;28;20112;-56
2021/05/23 01:16:46;;;;;;;5.38;3.13;;;18.90;78.10;;;;;;5018881;28;20037;-60
2021/05/23 01:19:19;;;;;;;5.85;2.80;;;19.20;75.60;;;;;;5052453;28;20108;-63
2021/05/23 01:21:51;;;;;;;7.88;2.47;;;19.60;74.20;;;;;;5051933;28;20021;-60
2021/05/23 01:24:27;;;;;;;6.20;2.45;;;19.80;72.80;;;;;;5051419;28;20505;-63
2021/05/23 01:26:55;;;;;;;5.80;2.35;;;19.90;71.00;;;;;;5051948;28;20033;-62
2021/05/23 01:29:22;;;;;;;5.72;2.83;;;19.90;70.10;;;;;;5051466;28;20333;-63
2021/05/23 01:31:56;;;;;;;7.82;2.92;;;19.80;70.20;;;;;;5052333;28;20024;-62
2021/05/23 01:34:24;;;;;;;5.50;3.20;;;19.70;71.30;;;;;;5051737;28;20096;-55
2021/05/23 01:36:54;;;;;;;4.90;2.50;;;19.80;71.10;;;;;;5052068;28;20021;-61
2021/05/23 01:39:22;;;;;;;4.90;2.55;;;19.80;70.80;;;;;;5052279;28;20037;-64
2021/05/23 01:41:51;;;;;;;5.25;2.53;;;19.90;71.00;;;;;;5051988;28;20022;-63
2021/05/23 01:44:19;;;;;;;5.43;2.92;;;19.90;70.80;;;;;;5055260;28;20040;-67
2021/05/23 01:46:47;;;;;;;3.58;2.30;;;19.90;70.20;;;;;;5056277;28;20072;-66
2021/05/23 01:49:15;;;;;;;2.85;2.50;;;19.90;70.40;;;;;;5056069;28;20412;-62
2021/05/23 01:51:42;;;;;;;4.75;2.10;;;19.90;70.80;;;;;;5055814;28;20049;-63
2021/05/23 01:54:09;;;;;;;5.60;2.17;;;19.80;71.80;;;;;;5055966;28;20163;-62
2021/05/23 01:56:38;;;;;;;5.53;2.45;;;19.80;70.80;;;;;;5055833;28;20029;-58
2021/05/23 01:59:05;;;;;;;3.45;2.17;;;19.70;71.30;;;;;;5055533;28;20028;-63
2021/05/23 02:01:32;;;;;;;5.13;1.85;;;19.60;71.50;;;;;;5055717;28;20419;-63
2021/05/23 02:04:02;;;;;;;3.03;2.17;;;19.60;72.90;;;;;;5055406;28;20040;-58
2021/05/23 02:06:30;;;;;;;7.38;2.80;;;19.60;72.80;;;;;;5054163;28;20016;-56
2021/05/23 02:08:57;;;;;;;5.88;2.90;;;19.50;72.70;;;;;;5075937;28;20047;-58
2021/05/23 02:11:24;;;;;;;5.53;3.70;;;19.50;73.90;;;;;;5072506;28;20384;-54
2021/05/23 02:13:55;;;;;;;6.43;3.83;;;19.50;73.00;;;;;;5075951;28;20021;-59
2021/05/23 02:16:23;;;;;;;12.40;4.18;;;19.40;73.00;;;;;;5071265;28;20054;-57
2021/05/23 02:18:50;;;;;;;10.40;3.58;;;19.40;73.60;;;;;;5073223;28;20020;-56
2021/05/23 02:21:17;;;;;;;7.32;3.78;;;19.30;73.70;;;;;;5071909;28;20021;-59
2021/05/23 02:23:53;;;;;;;6.28;3.80;;;19.30;73.30;;;;;;5072526;28;20036;-64
2021/05/23 02:26:20;;;;;;;6.97;4.20;;;19.30;74.50;;;;;;5070579;28;20020;-58
2021/05/23 02:28:48;;;;;;;6.80;4.20;;;19.20;74.60;;;;;;5071984;28;20093;-54
2021/05/23 02:31:16;;;;;;;6.43;4.05;;;19.20;74.30;;;;;;5072289;28;20332;-57
2021/05/23 02:33:43;;;;;;;7.25;3.83;;;19.20;76.60;;;;;;5071064;28;20037;-53
2021/05/23 02:36:14;;;;;;;7.30;4.18;;;19.20;76.80;;;;;;5067682;28;20043;-55
2021/05/23 02:38:41;;;;;;;7.13;3.25;;;19.10;74.70;;;;;;5071578;28;20285;-54
2021/05/23 02:41:09;;;;;;;4.88;3.13;;;19.20;76.80;;;;;;5070692;28;20021;-53
2021/05/23 02:43:36;;;;;;;4.45;3.10;;;19.20;76.70;;;;;;5071967;28;20044;-55
2021/05/23 02:46:04;;;;;;;5.40;3.70;;;19.10;76.10;;;;;;5066923;28;20103;-55
2021/05/23 02:48:31;;;;;;;6.15;4.10;;;19.10;76.70;;;;;;5072289;28;20104;-56
2021/05/23 02:51:03;;;;;;;10.25;4.68;;;19.10;76.20;;;;;;5072249;28;20025;-51
2021/05/23 02:53:31;;;;;;;17.35;5.85;;;19.10;77.90;;;;;;5071217;28;20036;-56
2021/05/23 02:55:58;;;;;;;16.88;6.25;;;19.20;78.00;;;;;;5067518;28;20491;-52
2021/05/23 02:58:26;;;;;;;15.05;5.53;;;19.20;77.30;;;;;;5071799;28;20320;-52
2021/05/23 03:00:53;;;;;;;17.00;5.72;;;19.30;77.60;;;;;;5069491;28;20375;-51
2021/05/23 03:03:21;;;;;;;18.35;7.55;;;19.30;76.90;;;;;;5071570;28;20131;-61
2021/05/23 03:05:48;;;;;;;18.98;6.50;;;19.40;77.00;;;;;;5068331;28;20463;-54
2021/05/23 03:08:16;;;;;;;18.25;6.53;;;19.40;76.60;;;;;;5071599;28;20051;-53
2021/05/23 03:10:46;;;;;;;18.63;6.93;;;19.40;77.40;;;;;;5070630;28;20064;-53
2021/05/23 03:13:14;;;;;;;20.38;6.68;;;19.50;76.70;;;;;;5071191;28;20416;-54
2021/05/23 03:15:42;;;;;;;23.58;6.97;;;19.60;76.10;;;;;;5068413;28;20116;-50
2021/05/23 03:18:10;;;;;;;18.40;5.72;;;19.70;75.40;;;;;;5071158;28;20138;-53
2021/05/23 03:20:41;;;;;;;15.52;5.85;;;19.80;77.00;;;;;;5071298;28;20051;-47
2021/05/23 03:23:09;;;;;;;26.30;5.95;;;19.90;77.20;;;;;;5070656;28;20409;-57
2021/05/23 03:25:37;;;;;;;28.20;10.45;;;20.00;76.90;;;;;;5067092;28;20031;-53
2021/05/23 03:28:05;;;;;;;24.38;9.40;;;20.20;75.90;;;;;;5071134;28;20133;-54
2021/05/23 03:30:37;;;;;;;22.75;8.63;;;20.30;76.30;;;;;;5067644;28;20471;-54
2021/05/23 03:33:05;;;;;;;19.70;7.30;;;20.40;76.20;;;;;;5072959;28;20034;-54
2021/05/23 03:35:33;;;;;;;13.13;5.50;;;20.40;76.20;;;;;;5073706;28;20036;-52
2021/05/23 03:38:02;;;;;;;18.08;5.72;;;20.50;77.60;;;;;;5073113;28;20475;-56
2021/05/23 03:40:35;;;;;;;18.55;8.07;;;20.60;77.80;;;;;;5073007;28;20370;-56
2021/05/23 03:43:04;;;;;;;18.23;6.05;;;20.80;77.70;;;;;;5073517;28;20082;-55
2021/05/23 03:45:32;;;;;;;17.13;7.45;;;21.00;77.20;;;;;;5073023;28;20032;-56
2021/05/23 03:47:59;;;;;;;21.65;12.10;;;21.10;76.60;;;;;;5073189;28;20046;-57
2021/05/23 03:50:27;;;;;;;23.15;14.77;;;21.10;76.50;;;;;;5073121;28;20506;-58
2021/05/23 03:52:57;;;;;;;18.42;8.13;;;21.00;75.70;;;;;;5073196;28;20043;-55
2021/05/23 03:55:27;;;;;;;9.07;4.63;;;21.00;76.60;;;;;;5072718;28;20021;-58
2021/05/23 03:57:56;;;;;;;16.08;9.82;;;21.00;77.10;;;;;;5072700;28;20027;-58
2021/05/23 04:00:24;;;;;;;18.17;9.15;;;21.00;76.90;;;;;;5072241;28;20089;-57
2021/05/23 04:02:53;;;;;;;12.98;5.05;;;21.20;76.70;;;;;;5073036;28;20036;-56
2021/05/23 04:05:22;;;;;;;11.18;4.03;;;21.30;76.40;;;;;;5073108;28;20050;-56
2021/05/23 04:07:51;;;;;;;19.63;11.38;;;21.40;75.80;;;;;;5072916;28;20411;-55
2021/05/23 04:10:22;;;;;;;23.38;11.75;;;21.60;75.80;;;;;;5072714;28;20024;-54
2021/05/23 04:12:50;;;;;;;17.30;6.68;;;21.60;75.40;;;;;;5071667;28;20050;-58
2021/05/23 04:15:19;;;;;;;12.45;4.38;;;21.70;74.80;;;;;;5072970;28;20033;-55
2021/05/23 04:17:47;;;;;;;8.75;5.05;;;21.80;74.40;;;;;;5073077;28;20028;-55
2021/05/23 04:20:16;;;;;;;17.05;5.90;;;21.80;74.20;;;;;;5073238;28;20367;-55
2021/05/23 04:22:43;;;;;;;20.75;6.90;;;21.80;74.70;;;;;;5072894;28;20035;-60
2021/05/23 04:25:13;;;;;;;14.43;5.82;;;21.90;75.80;;;;;;5073015;28;20395;-59
2021/05/23 04:27:42;;;;;;;16.33;4.28;;;22.00;75.20;;;;;;5072803;28;20021;-54
2021/05/23 04:30:11;;;;;;;12.57;3.35;;;22.10;74.70;;;;;;5072585;28;20032;-56
2021/05/23 04:32:38;;;;;;;15.93;5.43;;;22.10;74.70;;;;;;5072685;28;20032;-55
2021/05/23 04:35:07;;;;;;;14.35;5.78;;;22.20;75.30;;;;;;5072978;28;20114;-58
2021/05/23 04:37:35;;;;;;;27.55;14.57;;;22.30;75.00;;;;;;5072816;28;20040;-49
2021/05/23 04:40:03;;;;;;;26.25;14.40;;;22.30;75.00;;;;;;5072588;28;20055;-50
2021/05/23 04:42:30;;;;;;;24.55;10.93;;;22.40;74.10;;;;;;5072107;28;20044;-56
2021/05/23 04:44:58;;;;;;;16.75;10.02;;;22.50;73.50;;;;;;5071477;28;20450;-58
2021/05/23 04:47:27;;;;;;;17.27;10.27;;;22.50;73.30;;;;;;5073118;28;20047;-59
2021/05/23 04:49:54;;;;;;;18.75;11.30;;;22.50;72.90;;;;;;5073026;28;20035;-58
2021/05/23 04:52:22;;;;;;;33.78;26.42;;;22.50;73.40;;;;;;5072577;28;20388;-59
2021/05/23 04:54:49;;;;;;;16.65;10.30;;;22.60;72.90;;;;;;5072424;28;20166;-60
2021/05/23 04:57:17;;;;;;;23.95;17.08;;;22.60;72.80;;;;;;5072579;28;20109;-51
2021/05/23 04:59:44;;;;;;;29.27;20.13;;;22.50;72.90;;;;;;5071023;28;20063;-59
2021/05/23 05:02:11;;;;;;;27.70;14.10;;;22.60;73.20;;;;;;5071469;28;20111;-53
2021/05/23 05:04:39;;;;;;;29.17;19.83;;;22.80;73.00;;;;;;5071886;28;20383;-55
2021/05/23 05:07:06;;;;;;;30.98;23.33;;;22.80;73.00;;;;;;5071649;28;20028;-56
2021/05/23 05:09:34;;;;;;;26.70;21.80;;;22.90;72.80;;;;;;5071233;28;20032;-54
2021/05/23 05:12:01;;;;;;;29.52;24.42;;;22.90;72.40;;;;;;5072044;28;20403;-58
2021/05/23 05:14:28;;;;;;;27.95;17.05;;;22.90;72.10;;;;;;5071824;28;20514;-57
2021/05/23 05:16:56;;;;;;;25.73;21.58;;;22.90;72.10;;;;;;5071767;28;20126;-59
2021/05/23 05:19:23;;;;;;;19.98;13.20;;;23.00;72.70;;;;;;5071850;28;20028;-58
2021/05/23 05:21:50;;;;;;;21.10;13.75;;;23.00;72.80;;;;;;5072072;28;20024;-54
2021/05/23 05:24:18;;;;;;;15.55;6.63;;;23.10;73.20;;;;;;5071444;28;20047;-57
2021/05/23 05:26:45;;;;;;;12.95;4.70;;;23.20;73.10;;;;;;5071222;28;20117;-60
2021/05/23 05:29:13;;;;;;;6.85;3.70;;;23.20;72.60;;;;;;5072070;28;20057;-57
2021/05/23 05:31:40;;;;;;;11.32;4.18;;;23.30;73.00;;;;;;5072009;28;20021;-56
2021/05/23 05:34:07;;;;;;;11.65;3.60;;;23.20;73.40;;;;;;5071705;28;20024;-56
2021/05/23 05:36:35;;;;;;;10.73;3.00;;;23.20;73.20;;;;;;5071390;28;20032;-61
2021/05/23 05:39:02;;;;;;;10.48;3.05;;;23.10;73.00;;;;;;5072302;28;20054;-52
2021/05/23 05:41:30;;;;;;;10.82;3.10;;;23.00;73.50;;;;;;5072081;28;20098;-53
2021/05/23 05:43:58;;;;;;;7.35;2.92;;;22.90;73.70;;;;;;5071800;28;20090;-58
2021/05/23 05:46:25;;;;;;;8.27;3.05;;;22.80;74.60;;;;;;5071510;28;20035;-61
2021/05/23 05:48:53;;;;;;;15.02;3.00;;;22.70;75.40;;;;;;5071503;28;20036;-58
2021/05/23 05:51:21;;;;;;;7.65;2.85;;;22.50;75.80;;;;;;5071656;28;20025;-52
2021/05/23 05:53:48;;;;;;;17.17;3.22;;;22.40;75.70;;;;;;5071485;28;20029;-59
2021/05/23 05:56:16;;;;;;;11.13;2.33;;;22.40;76.70;;;;;;5071647;28;20356;-54
2021/05/23 05:58:43;;;;;;;12.55;2.75;;;22.30;77.90;;;;;;5071036;28;20028;-58
2021/05/23 06:01:11;;;;;;;9.43;2.67;;;22.20;77.70;;;;;;5071088;28;20067;-52
2021/05/23 06:03:38;;;;;;;15.25;3.47;;;22.10;78.20;;;;;;5069224;28;20037;-58
2021/05/23 06:06:05;;;;;;;26.15;3.08;;;22.00;78.50;;;;;;5070859;28;20036;-56
2021/05/23 06:08:33;;;;;;;14.90;3.08;;;22.00;78.90;;;;;;5069806;28;20394;-54
2021/05/23 06:11:00;;;;;;;23.40;4.00;;;21.90;79.80;;;;;;5071221;28;20055;-56
2021/05/23 06:13:27;;;;;;;17.80;3.65;;;21.70;80.00;;;;;;5071866;28;20031;-59
2021/05/23 06:15:55;;;;;;;14.93;3.88;;;21.50;80.60;;;;;;5071422;28;20024;-56
2021/05/23 06:18:27;;;;;;;17.52;3.90;;;21.40;80.20;;;;;;5062112;28;20056;-53
2021/05/23 06:20:55;;;;;;;19.90;3.75;;;21.30;81.20;;;;;;5068343;28;20144;-52
2021/05/23 06:23:22;;;;;;;15.98;3.45;;;21.20;81.40;;;;;;5070698;28;20468;-56
2021/05/23 06:25:51;;;;;;;14.70;3.25;;;21.00;81.60;;;;;;5068584;28;20027;-57
2021/05/23 06:28:18;;;;;;;19.13;3.58;;;21.00;81.80;;;;;;5069000;28;20498;-59
2021/05/23 06:30:45;;;;;;;10.63;3.00;;;20.90;82.00;;;;;;5069433;28;20123;-50
2021/05/23 06:33:13;;;;;;;18.05;3.33;;;20.80;82.30;;;;;;5070435;28;20051;-55
2021/05/23 06:35:40;;;;;;;12.63;3.50;;;20.70;82.50;;;;;;5072060;28;20546;-52
2021/05/23 06:38:07;;;;;;;14.50;4.38;;;20.60;82.60;;;;;;5072737;28;20070;-56
2021/05/23 06:40:35;;;;;;;14.90;3.13;;;20.60;82.70;;;;;;5068739;28;20020;-52
2021/05/23 06:43:02;;;;;;;7.75;3.22;;;20.50;82.90;;;;;;5071590;28;20589;-56
2021/05/23 06:45:29;;;;;;;10.70;2.90;;;20.40;83.10;;;;;;5071155;28;20024;-58
2021/05/23 06:47:57;;;;;;;14.77;3.85;;;20.40;83.40;;;;;;5072730;28;20021;-59
2021/05/23 06:50:24;;;;;;;9.98;3.05;;;20.30;83.60;;;;;;5068932;28;21333;-55
2021/05/23 06:52:52;;;;;;;8.07;2.60;;;20.30;83.60;;;;;;5071951;28;20230;-55
2021/05/23 06:55:19;;;;;;;14.60;3.13;;;20.20;83.60;;;;;;5068711;28;20029;-50
2021/05/23 06:57:46;;;;;;;11.15;2.90;;;20.10;84.00;;;;;;5072762;28;20115;-55
2021/05/23 07:00:15;;;;;;;7.40;2.92;;;20.00;84.00;;;;;;5070534;28;20028;-55
2021/05/23 07:02:44;;;;;;;10.45;2.55;;;20.00;84.40;;;;;;5070785;28;20063;-54
2021/05/23 07:05:12;;;;;;;14.68;2.85;;;20.00;84.30;;;;;;5072419;28;20063;-56
2021/05/23 07:07:39;;;;;;;9.00;2.03;;;19.90;84.20;;;;;;5072547;28;20024;-61
2021/05/23 07:10:08;;;;;;;11.18;2.78;;;19.90;84.30;;;;;;5071338;28;20031;-59
2021/05/23 07:12:36;;;;;;;8.68;2.22;;;19.80;84.30;;;;;;5071075;28;20399;-51
2021/05/23 07:15:04;;;;;;;8.55;2.70;;;19.80;84.40;;;;;;5072007;28;20467;-51
2021/05/23 07:17:32;;;;;;;4.53;2.13;;;19.80;84.60;;;;;;5071502;28;20097;-53
2021/05/23 07:19:59;;;;;;;9.35;2.22;;;19.70;84.70;;;;;;5072526;28;20051;-53
2021/05/23 07:22:26;;;;;;;13.27;2.63;;;19.70;84.70;;;;;;5067770;28;20397;-54
2021/05/23 07:24:54;;;;;;;9.45;2.45;;;19.70;84.70;;;;;;5072489;28;20032;-51
2021/05/23 07:27:21;;;;;;;6.15;2.40;;;19.60;84.80;;;;;;5072015;28;20028;-56
2021/05/23 07:29:48;;;;;;;5.68;2.17;;;19.60;84.80;;;;;;5071971;28;20020;-63
2021/05/23 07:32:16;;;;;;;7.40;2.85;;;19.60;84.70;;;;;;5068346;28;20357;-55
2021/05/23 07:34:43;;;;;;;8.10;2.67;;;19.50;85.00;;;;;;5070933;28;20028;-54
2021/05/23 07:37:10;;;;;;;6.38;2.10;;;19.50;84.90;;;;;;5071748;28;20042;-56
2021/05/23 07:39:38;;;;;;;4.40;2.55;;;19.50;85.00;;;;;;5071632;28;20091;-50
2021/05/23 07:42:05;;;;;;;6.55;2.15;;;19.40;85.00;;;;;;5066247;28;20035;-53
2021/05/23 07:44:33;;;;;;;6.93;2.80;;;19.40;85.50;;;;;;5067923;28;20036;-56
2021/05/23 07:47:00;;;;;;;5.00;2.10;;;19.40;85.70;;;;;;5065987;28;20469;-56
2021/05/23 07:49:28;;;;;;;7.18;2.35;;;19.40;85.50;;;;;;5071222;28;20544;-54
2021/05/23 07:51:55;;;;;;;5.35;2.13;;;19.40;85.40;;;;;;5066792;28;20027;-54
2021/05/23 07:54:22;;;;;;;9.07;2.50;;;19.30;85.30;;;;;;5070897;28;20104;-50
2021/05/23 07:56:50;;;;;;;5.38;2.00;;;19.30;85.30;;;;;;5071453;28;20021;-58
2021/05/23 07:59:17;;;;;;;7.40;2.33;;;19.30;85.20;;;;;;5070194;28;20035;-54
2021/05/23 08:01:44;;;;;;;8.07;2.63;;;19.30;85.20;;;;;;5066225;28;20471;-56
2021/05/23 08:04:12;;;;;;;5.18;1.60;;;19.30;85.10;;;;;;5071130;28;20477;-50
2021/05/23 08:06:39;;;;;;;4.63;2.10;;;19.30;85.30;;;;;;5071255;28;20021;-56
2021/05/23 08:09:07;;;;;;;8.98;2.10;;;19.20;85.40;;;;;;5070256;28;20025;-47
2021/05/23 08:11:34;;;;;;;6.25;1.98;;;19.20;85.60;;;;;;5062644;28;20044;-59
2021/05/23 08:14:01;;;;;;;7.75;2.35;;;19.10;85.50;;;;;;5072869;28;20439;-62
2021/05/23 08:16:29;;;;;;;5.20;1.67;;;19.10;85.50;;;;;;5069715;28;20032;-52
2021/05/23 08:18:56;;;;;;;5.40;1.88;;;19.10;85.50;;;;;;5070546;28;20028;-58
2021/05/23 08:21:23;;;;;;;3.85;2.25;;;19.10;85.50;;;;;;5066956;28;20058;-58
2021/05/23 08:23:51;;;;;;;4.55;1.95;;;19.00;85.20;;;;;;5071346;28;20036;-50
2021/05/23 08:26:18;;;;;;;5.68;2.20;;;19.10;85.30;;;;;;5070091;28;20463;-54
2021/05/23 08:28:45;;;;;;;5.32;2.20;;;19.00;85.40;;;;;;5070454;28;20032;-53
2021/05/23 08:31:13;;;;;;;4.25;1.80;;;19.00;85.30;;;;;;5067559;28;20332;-55
2021/05/23 08:33:40;;;;;;;6.20;2.40;;;19.00;85.50;;;;;;5068713;28;20021;-58
2021/05/23 08:36:08;;;;;;;4.28;1.75;;;19.00;85.40;;;;;;5070568;28;20113;-53
2021/05/23 08:38:36;;;;;;;6.03;1.85;;;19.00;85.40;;;;;;5070563;28;20493;-53
2021/05/23 08:41:04;;;;;;;6.70;1.70;;;19.00;85.40;;;;;;5066811;28;20024;-55
2021/05/23 08:43:32;;;;;;;4.10;1.73;;;19.00;85.60;;;;;;5070138;28;20064;-49
2021/05/23 08:46:00;;;;;;;4.82;2.45;;;18.90;85.50;;;;;;5069001;28;20020;-52
2021/05/23 08:48:28;;;;;;;5.15;1.75;;;18.90;85.50;;;;;;5069844;28;20028;-51
2021/05/23 08:50:55;;;;;;;2.78;1.90;;;18.90;85.40;;;;;;5065905;28;20029;-49
2021/05/23 08:53:23;;;;;;;4.85;1.90;;;18.90;85.50;;;;;;5069380;28;20040;-50
2021/05/23 08:55:50;;;;;;;4.93;1.95;;;18.90;85.20;;;;;;5070195;28;20365;-46
2021/05/23 08:58:18;;;;;;;4.07;1.35;;;18.80;85.70;;;;;;5070718;28;20332;-46
2021/05/23 09:00:46;;;;;;;4.05;1.80;;;18.80;85.60;;;;;;5065229;28;20029;-49
2021/05/23 09:03:16;;;;;;;4.30;2.28;;;18.80;85.50;;;;;;5070707;28;20035;-49
2021/05/23 09:05:49;;;;;;;2.97;1.55;;;18.80;85.50;;;;;;5070549;28;20028;-52
2021/05/23 09:08:22;;;;;;;3.15;1.92;;;18.80;85.60;;;;;;5069747;28;20028;-52
2021/05/23 09:10:51;;;;;;;3.75;2.10;;;18.80;85.60;;;;;;5061867;28;20394;-46
2021/05/23 09:13:37;;;;;;;3.15;2.05;;;18.80;85.60;;;;;;5068503;28;20027;-53
2021/05/23 09:16:15;;;;;;;6.07;2.00;;;18.80;85.50;;;;;;5067895;28;20103;-56
2021/05/23 09:18:45;;;;;;;3.13;1.80;;;18.80;85.70;;;;;;5069755;28;20649;-52
2021/05/23 09:21:19;;;;;;;3.60;1.67;;;18.80;85.70;;;;;;5065345;28;20064;-50
2021/05/23 09:23:58;;;;;;;2.83;1.60;;;18.70;85.40;;;;;;5070307;28;20047;-51
2021/05/23 09:26:29;;;;;;;3.28;2.03;;;18.70;85.50;;;;;;5069622;28;20021;-54
2021/05/23 09:29:22;;;;;;;3.63;1.70;;;18.70;85.50;;;;;;5065837;28;20028;-49
2021/05/23 09:32:06;;;;;;;3.55;1.60;;;18.70;85.40;;;;;;5065307;28;20375;-52
2021/05/23 09:34:33;;;;;;;2.25;1.45;;;18.70;85.80;;;;;;5067319;28;20060;-52
2021/05/23 09:37:01;;;;;;;4.50;1.60;;;18.70;85.40;;;;;;5070089;28;20021;-53
2021/05/23 09:39:39;;;;;;;3.38;1.55;;;18.70;85.60;;;;;;5069037;28;20474;-54
2021/05/23 09:42:13;;;;;;;5.10;2.08;;;18.70;85.40;;;;;;5063302;28;20035;-56
2021/05/23 09:44:49;;;;;;;2.30;1.50;;;18.70;85.40;;;;;;5069456;28;20033;-53
2021/05/23 09:47:16;;;;;;;3.63;1.63;;;18.60;85.40;;;;;;5069811;28;20115;-50
2021/05/23 09:49:57;;;;;;;3.88;2.10;;;18.60;85.60;;;;;;5069491;28;20364;-55
2021/05/23 09:52:39;;;;;;;4.10;2.03;;;18.60;85.80;;;;;;5065625;28;20036;-57
2021/05/23 09:55:07;;;;;;;4.45;1.80;;;18.60;85.60;;;;;;5066652;28;20031;-58
2021/05/23 09:57:35;;;;;;;5.05;1.77;;;18.60;85.70;;;;;;5071935;28;20483;-55
2021/05/23 10:00:09;;;;;;;4.30;1.98;;;18.60;86.00;;;;;;5071570;28;20040;-63
2021/05/23 10:02:56;;;;;;;2.95;1.33;;;18.50;85.60;;;;;;5070318;28;20041;-57
2021/05/23 10:05:24;;;;;;;3.65;1.77;;;18.50;86.00;;;;;;5074749;28;20080;-53
2021/05/23 10:07:51;;;;;;;5.95;1.90;;;18.50;85.90;;;;;;5075426;28;20021;-56
2021/05/23 10:10:19;;;;;;;4.38;2.08;;;18.50;86.20;;;;;;5075173;28;20032;-56
2021/05/23 10:12:47;;;;;;;4.25;1.83;;;18.40;86.40;;;;;;5075421;28;20029;-58
2021/05/23 10:15:15;;;;;;;4.18;1.95;;;18.40;85.90;;;;;;5075080;28;20416;-57
2021/05/23 10:17:43;;;;;;;5.47;2.15;;;18.40;86.20;;;;;;5075470;28;20036;-57
2021/05/23 10:20:13;;;;;;;3.50;1.88;;;18.30;85.80;;;;;;5075350;28;20024;-59
2021/05/23 10:22:41;;;;;;;3.67;1.85;;;18.40;86.30;;;;;;5074474;28;20024;-58
2021/05/23 10:25:11;;;;;;;4.28;2.17;;;18.40;86.50;;;;;;5075390;28;20033;-58
2021/05/23 10:27:43;;;;;;;4.20;1.40;;;18.30;86.60;;;;;;5075242;28;20099;-61
2021/05/23 10:30:11;;;;;;;9.38;1.58;;;18.30;86.50;;;;;;5074928;28;20482;-59
2021/05/23 10:32:39;;;;;;;3.50;1.70;;;18.30;86.20;;;;;;5075091;28;20484;-61
2021/05/23 10:35:23;;;;;;;3.42;1.65;;;18.30;86.20;;;;;;5074986;28;20383;-55
2021/05/23 10:37:53;;;;;;;4.63;2.00;;;18.30;86.10;;;;;;5075260;28;20103;-54
2021/05/23 10:40:31;;;;;;;9.05;1.52;;;18.30;86.30;;;;;;5074928;28;20024;-53
2021/05/23 10:43:01;;;;;;;3.97;1.77;;;18.30;86.40;;;;;;5073865;28;20039;-55
2021/05/23 10:45:34;;;;;;;2.85;1.85;;;18.30;86.40;;;;;;5074375;28;20119;-56
2021/05/23 10:48:19;;;;;;;5.85;1.85;;;18.20;86.50;;;;;;5074527;28;20051;-61
2021/05/23 10:50:47;;;;;;;7.97;2.10;;;18.20;86.80;;;;;;5074470;28;20028;-60
2021/05/23 10:53:15;;;;;;;3.78;1.80;;;18.20;86.80;;;;;;5073533;28;20028;-58
2021/05/23 10:55:51;;;;;;;4.47;1.42;;;18.20;87.10;;;;;;5074962;28;20077;-60
2021/05/23 10:58:27;;;;;;;3.65;1.70;;;18.20;86.80;;;;;;5066853;28;20040;-60
2021/05/23 11:00:57;;;;;;;4.28;2.10;;;18.20;87.20;;;;;;5082977;28;20176;-54
2021/05/23 11:03:35;;;;;;;6.07;1.92;;;18.20;86.80;;;;;;5070592;28;20035;-51
2021/05/23 11:06:05;;;;;;;4.90;1.83;;;18.20;87.30;;;;;;5070870;28;20071;-54
2021/05/23 11:08:34;;;;;;;4.93;2.83;;;18.20;86.80;;;;;;5067318;28;20487;-49
2021/05/23 11:11:02;;;;;;;5.22;1.90;;;18.10;87.00;;;;;;5068841;28;20049;-52
2021/05/23 11:13:33;;;;;;;4.60;2.28;;;18.20;86.90;;;;;;5068715;28;20056;-57
2021/05/23 11:16:14;;;;;;;3.45;1.70;;;18.10;86.60;;;;;;5074402;28;20499;-58
2021/05/23 11:18:42;;;;;;;4.28;1.80;;;18.20;86.70;;;;;;5068859;28;20180;-55
2021/05/23 11:21:12;;;;;;;3.88;1.70;;;18.10;86.70;;;;;;5070430;28;20115;-52
2021/05/23 11:23:57;;;;;;;4.40;2.20;;;18.10;86.80;;;;;;5070779;28;20040;-59
2021/05/23 11:26:26;;;;;;;5.38;2.20;;;18.10;86.50;;;;;;5070102;28;20047;-48
2021/05/23 11:28:57;;;;;;;4.80;2.55;;;18.10;86.60;;;;;;5071627;28;20039;-49
2021/05/23 11:31:30;;;;;;;3.47;2.00;;;18.10;86.80;;;;;;5068618;28;20035;-52
2021/05/23 11:33:58;;;;;;;3.08;2.05;;;18.10;86.60;;;;;;5070012;28;20029;-52
2021/05/23 11:36:28;;;;;;;7.75;2.08;;;18.10;87.00;;;;;;5070278;28;20032;-54
2021/05/23 11:39:01;;;;;;;3.70;1.92;;;18.00;86.50;;;;;;5071591;28;20137;-52
2021/05/23 11:41:40;;;;;;;4.03;2.20;;;18.00;86.70;;;;;;5067456;28;20099;-50
2021/05/23 11:44:14;;;;;;;6.07;2.13;;;18.00;86.50;;;;;;5072157;28;20109;-54
2021/05/23 11:46:44;;;;;;;4.72;2.50;;;18.00;86.60;;;;;;5068697;28;20521;-55
2021/05/23 11:49:22;;;;;;;4.00;1.88;;;18.00;86.60;;;;;;5070716;28;20028;-55
2021/05/23 11:51:50;;;;;;;2.75;1.75;;;18.00;86.50;;;;;;5064878;28;20122;-56
2021/05/23 11:54:18;;;;;;;3.03;1.80;;;18.00;86.50;;;;;;5071563;28;20040;-51
2021/05/23 11:56:45;;;;;;;4.40;2.38;;;18.00;86.60;;;;;;5070818;28;20031;-57
2021/05/23 11:59:12;;;;;;;4.07;2.25;;;17.90;86.70;;;;;;5067518;28;20157;-53
2021/05/23 12:01:55;;;;;;;4.30;2.10;;;17.90;86.80;;;;;;5067808;28;20040;-55
2021/05/23 12:04:23;;;;;;;4.07;2.08;;;17.90;86.60;;;;;;5068561;28;20032;-55
2021/05/23 12:06:52;;;;;;;3.28;1.75;;;17.90;86.60;;;;;;5071206;28;20024;-54
2021/05/23 12:09:31;;;;;;;5.03;1.85;;;17.90;86.60;;;;;;5071048;28;20056;-54
2021/05/23 12:12:07;;;;;;;3.15;1.98;;;17.90;86.80;;;;;;5065564;28;20132;-55
2021/05/23 12:14:36;;;;;;;3.95;2.47;;;17.90;86.70;;;;;;5071185;28;20519;-54
2021/05/23 12:17:07;;;;;;;6.93;2.20;;;17.90;86.80;;;;;;5070466;28;20025;-51
2021/05/23 12:22:23;;;;;;;7.45;2.55;;;17.80;86.80;;;;;;5068188;28;20027;-54
2021/05/23 12:24:59;;;;;;;3.22;1.88;;;17.90;86.80;;;;;;5070374;28;20036;-54
2021/05/23 12:27:28;;;;;;;2.95;2.13;;;17.90;86.90;;;;;;5067545;28;20028;-50
2021/05/23 12:30:18;;;;;;;3.22;1.80;;;17.80;86.80;;;;;;5070213;28;20032;-58
2021/05/23 12:32:54;;;;;;;5.78;2.45;;;17.80;86.80;;;;;;5067420;28;20024;-56
2021/05/23 12:35:25;;;;;;;4.28;2.25;;;17.90;86.90;;;;;;5069655;28;20033;-55
2021/05/23 12:38:00;;;;;;;3.63;1.70;;;17.80;86.70;;;;;;5067030;28;20028;-55
2021/05/23 12:40:46;;;;;;;4.07;2.00;;;17.80;86.80;;;;;;5067590;28;20025;-59
2021/05/23 12:43:22;;;;;;;5.97;2.50;;;17.80;86.80;;;;;;5067088;28;20032;-61
2021/05/23 12:46:06;;;;;;;3.15;1.90;;;17.80;86.70;;;;;;5070710;28;20024;-58
2021/05/23 12:49:00;;;;;;;4.03;2.50;;;17.80;86.70;;;;;;5067624;28;20028;-54
2021/05/23 12:51:28;;;;;;;3.53;2.03;;;17.80;86.70;;;;;;5063457;28;20102;-55
2021/05/23 12:53:57;;;;;;;3.80;1.50;;;17.70;86.60;;;;;;5070446;28;20024;-61
2021/05/23 12:56:27;;;;;;;3.95;1.90;;;17.80;86.70;;;;;;5066398;28;20380;-60
2021/05/23 12:58:59;;;;;;;4.60;2.22;;;17.70;86.70;;;;;;5068245;28;20077;-60